createdAt,value
2017-02-15T00:00:58.920Z,0
2017-02-15T00:02:21.418Z,0
2017-02-15T00:03:43.677Z,0
2017-02-15T00:05:05.279Z,0
2017-02-15T00:06:26.999Z,0
2017-02-15T00:07:49.143Z,0
2017-02-15T00:09:11.651Z,0
2017-02-15T00:10:34.247Z,0
2017-02-15T00:11:56.339Z,0
2017-02-15T00:13:18.440Z,0
2017-02-15T00:14:40.936Z,0
2017-02-15T00:16:03.462Z,0
2017-02-15T00:17:25.178Z,0
2017-02-15T00:18:47.767Z,0
2017-02-15T00:20:10.270Z,0
2017-02-15T00:21:33.061Z,0
2017-02-15T00:22:55.968Z,0
2017-02-15T00:24:18.868Z,0
2017-02-15T00:25:41.079Z,0
2017-02-15T00:27:03.041Z,0
2017-02-15T00:28:25.595Z,0
2017-02-15T00:29:47.408Z,0
2017-02-15T00:31:09.916Z,0
2017-02-15T00:32:32.500Z,0
2017-02-15T00:33:54.979Z,0
2017-02-15T00:35:17.071Z,0
2017-02-15T00:36:39.203Z,0
2017-02-15T00:38:00.879Z,0
2017-02-15T00:39:22.996Z,0
2017-02-15T00:40:45.513Z,0
2017-02-15T00:42:07.607Z,0
2017-02-15T00:43:29.657Z,0
2017-02-15T00:44:51.416Z,0
2017-02-15T00:46:13.612Z,0
2017-02-15T00:47:36.579Z,0
2017-02-15T00:48:59.343Z,0
2017-02-15T00:50:21.829Z,0
2017-02-15T00:51:43.136Z,0
2017-02-15T00:53:04.952Z,0
2017-02-15T00:54:26.919Z,0
2017-02-15T00:55:49.150Z,0
2017-02-15T00:57:10.871Z,0
2017-02-15T00:58:33.380Z,0
2017-02-15T00:59:55.390Z,0
2017-02-15T01:01:17.608Z,0
2017-02-15T01:02:39.375Z,0
2017-02-15T01:04:01.261Z,0
2017-02-15T01:05:23.661Z,0
2017-02-15T01:06:46.308Z,0
2017-02-15T01:08:08.011Z,0
2017-02-15T01:09:30.548Z,0
2017-02-15T01:10:53.797Z,0
2017-02-15T01:12:16.298Z,0
2017-02-15T01:13:38.819Z,0
2017-02-15T01:15:01.709Z,0
2017-02-15T01:16:24.057Z,0
2017-02-15T01:17:45.756Z,0
2017-02-15T01:19:08.035Z,0
2017-02-15T01:20:30.569Z,0
2017-02-15T01:21:52.597Z,0
2017-02-15T01:23:14.709Z,0
2017-02-15T01:24:36.819Z,0
2017-02-15T01:25:59.433Z,0
2017-02-15T01:27:21.973Z,0
2017-02-15T01:28:44.093Z,0
2017-02-15T01:30:06.631Z,0
2017-02-15T01:31:28.734Z,0
2017-02-15T01:32:50.679Z,0
2017-02-15T01:34:13.198Z,0
2017-02-15T01:35:35.341Z,0
2017-02-15T01:36:57.477Z,0
2017-02-15T01:38:19.527Z,0
2017-02-15T01:39:42.070Z,0
2017-02-15T01:41:04.198Z,0
2017-02-15T01:42:25.890Z,0
2017-02-15T01:43:47.861Z,0
2017-02-15T01:45:09.951Z,0
2017-02-15T01:46:31.671Z,0
2017-02-15T01:47:53.768Z,0
2017-02-15T01:49:16.529Z,0
2017-02-15T01:50:39.060Z,0
2017-02-15T01:52:01.231Z,0
2017-02-15T01:53:23.355Z,0
2017-02-15T01:54:45.370Z,0
2017-02-15T01:56:07.472Z,0
2017-02-15T01:57:29.551Z,0
2017-02-15T01:58:51.269Z,0
2017-02-15T02:00:13.671Z,0
2017-02-15T02:01:36.193Z,0
2017-02-15T02:02:58.299Z,0
2017-02-15T02:04:20.401Z,0
2017-02-15T02:05:43.358Z,0
2017-02-15T02:07:05.903Z,0
2017-02-15T02:08:27.995Z,0
2017-02-15T02:09:50.931Z,0
2017-02-15T02:11:13.060Z,0
2017-02-15T02:12:34.749Z,0
2017-02-15T02:13:57.255Z,0
2017-02-15T02:15:18.623Z,0
2017-02-15T02:16:41.048Z,0
2017-02-15T02:18:03.200Z,0
2017-02-15T02:19:26.097Z,0
2017-02-15T02:20:48.602Z,0
2017-02-15T02:22:10.997Z,0
2017-02-15T02:23:33.502Z,0
2017-02-15T02:24:55.599Z,0
2017-02-15T02:26:18.116Z,0
2017-02-15T02:27:40.187Z,0
2017-02-15T02:29:01.549Z,0
2017-02-15T02:30:23.839Z,0
2017-02-15T02:31:45.131Z,0
2017-02-15T02:33:07.756Z,0
2017-02-15T02:34:29.882Z,0
2017-02-15T02:35:51.247Z,0
2017-02-15T02:37:13.406Z,0
2017-02-15T02:38:35.759Z,0
2017-02-15T02:39:57.839Z,0
2017-02-15T02:41:20.117Z,0
2017-02-15T02:42:42.691Z,0
2017-02-15T02:44:05.428Z,0
2017-02-15T02:45:27.184Z,0
2017-02-15T02:46:48.898Z,0
2017-02-15T02:48:10.567Z,0
2017-02-15T02:49:33.073Z,0
2017-02-15T02:50:55.211Z,0
2017-02-15T02:52:16.920Z,0
2017-02-15T02:53:39.441Z,0
2017-02-15T02:55:01.396Z,0
2017-02-15T02:56:23.537Z,0
2017-02-15T02:57:45.620Z,0
2017-02-15T02:59:07.825Z,0
2017-02-15T03:00:29.867Z,0
2017-02-15T03:01:51.261Z,0
2017-02-15T03:03:12.965Z,0
2017-02-15T03:04:35.101Z,0
2017-02-15T03:05:57.968Z,0
2017-02-15T03:07:20.215Z,0
2017-02-15T03:08:41.592Z,0
2017-02-15T03:10:04.116Z,0
2017-02-15T03:11:26.205Z,0
2017-02-15T03:12:48.813Z,0
2017-02-15T03:14:11.057Z,0
2017-02-15T03:15:32.841Z,0
2017-02-15T03:16:55.589Z,0
2017-02-15T03:18:16.915Z,0
2017-02-15T03:19:39.419Z,0
2017-02-15T03:21:02.000Z,0
2017-02-15T03:22:25.182Z,0
2017-02-15T03:23:47.679Z,0
2017-02-15T03:25:08.956Z,0
2017-02-15T03:26:30.701Z,0
2017-02-15T03:27:52.766Z,0
2017-02-15T03:29:14.854Z,0
2017-02-15T03:30:36.958Z,0
2017-02-15T03:31:59.601Z,0
2017-02-15T03:33:21.230Z,0
2017-02-15T03:34:43.326Z,0
2017-02-15T03:36:05.041Z,0
2017-02-15T03:37:27.198Z,0
2017-02-15T03:38:50.407Z,0
2017-02-15T03:40:13.394Z,0
2017-02-15T03:41:35.906Z,0
2017-02-15T03:42:58.438Z,0
2017-02-15T03:44:20.865Z,0
2017-02-15T03:45:42.969Z,0
2017-02-15T03:47:05.476Z,0
2017-02-15T03:48:27.249Z,0
2017-02-15T03:49:50.097Z,0
2017-02-15T03:51:13.000Z,0
2017-02-15T03:52:35.584Z,0
2017-02-15T03:53:57.810Z,0
2017-02-15T03:55:20.601Z,0
2017-02-15T03:56:43.088Z,0
2017-02-15T03:58:05.300Z,0
2017-02-15T03:59:27.769Z,0
2017-02-15T04:00:49.348Z,0
2017-02-15T04:02:11.518Z,0
2017-02-15T04:03:34.045Z,0
2017-02-15T04:04:56.561Z,0
2017-02-15T04:06:19.039Z,0
2017-02-15T04:07:41.128Z,0
2017-02-15T04:09:03.230Z,0
2017-02-15T04:10:25.031Z,0
2017-02-15T04:11:48.201Z,0
2017-02-15T04:13:10.309Z,0
2017-02-15T04:14:32.436Z,0
2017-02-15T04:15:54.515Z,0
2017-02-15T04:17:16.147Z,0
2017-02-15T04:18:37.973Z,0
2017-02-15T04:20:00.892Z,0
2017-02-15T04:21:23.407Z,0
2017-02-15T04:22:45.765Z,0
2017-02-15T04:24:08.249Z,0
2017-02-15T04:25:30.361Z,0
2017-02-15T04:26:52.441Z,0
2017-02-15T04:28:15.296Z,0
2017-02-15T04:29:37.803Z,0
2017-02-15T04:30:59.570Z,0
2017-02-15T04:32:21.660Z,0
2017-02-15T04:33:43.788Z,0
2017-02-15T04:35:05.477Z,0
2017-02-15T04:36:28.029Z,0
2017-02-15T04:37:50.120Z,0
2017-02-15T04:39:12.612Z,0
2017-02-15T04:40:34.340Z,0
2017-02-15T04:41:56.829Z,0
2017-02-15T04:43:19.045Z,0
2017-02-15T04:44:40.708Z,0
2017-02-15T04:46:03.312Z,0
2017-02-15T04:47:25.010Z,0
2017-02-15T04:48:46.696Z,0
2017-02-15T04:50:09.054Z,0
2017-02-15T04:51:31.171Z,0
2017-02-15T04:52:53.479Z,0
2017-02-15T04:54:14.390Z,0
2017-02-15T04:55:36.370Z,0
2017-02-15T04:56:59.433Z,0
2017-02-15T04:58:21.690Z,0
2017-02-15T04:59:43.781Z,0
2017-02-15T05:01:06.172Z,0
2017-02-15T05:02:28.704Z,0
2017-02-15T05:03:50.376Z,0
2017-02-15T05:05:12.481Z,0
2017-02-15T05:06:34.650Z,0
2017-02-15T05:07:56.751Z,0
2017-02-15T05:09:18.542Z,0
2017-02-15T05:10:40.218Z,0
2017-02-15T05:12:03.422Z,0
2017-02-15T05:13:25.513Z,0
2017-02-15T05:14:48.064Z,0
2017-02-15T05:16:09.791Z,0
2017-02-15T05:17:32.251Z,0
2017-02-15T05:18:54.747Z,0
2017-02-15T05:20:17.257Z,0
2017-02-15T05:21:38.967Z,0
2017-02-15T05:23:00.961Z,0
2017-02-15T05:24:23.169Z,0
2017-02-15T05:25:45.671Z,0
2017-02-15T05:27:08.619Z,0
2017-02-15T05:28:30.976Z,0
2017-02-15T05:29:53.104Z,0
2017-02-15T05:31:15.601Z,0
2017-02-15T05:32:37.702Z,0
2017-02-15T05:34:00.133Z,0
2017-02-15T05:35:21.818Z,0
2017-02-15T05:36:44.187Z,0
2017-02-15T05:38:06.084Z,0
2017-02-15T05:39:28.501Z,0
2017-02-15T05:40:50.607Z,0
2017-02-15T05:42:13.487Z,0
2017-02-15T05:43:36.958Z,0
2017-02-15T05:44:59.872Z,0
2017-02-15T05:46:21.208Z,0
2017-02-15T05:47:43.762Z,0
2017-02-15T05:49:06.322Z,0
2017-02-15T05:50:28.733Z,0
2017-02-15T05:51:49.618Z,0
2017-02-15T05:53:10.553Z,0
2017-02-15T05:54:32.392Z,0
2017-02-15T05:55:55.217Z,0
2017-02-15T05:57:18.122Z,0
2017-02-15T05:58:40.622Z,0
2017-02-15T06:00:03.543Z,0
2017-02-15T06:01:25.893Z,0
2017-02-15T06:02:47.655Z,4
2017-02-15T06:04:09.741Z,0
2017-02-15T06:05:32.312Z,4
2017-02-15T06:06:54.828Z,0
2017-02-15T06:08:17.364Z,4
2017-02-15T06:09:39.584Z,4
2017-02-15T06:11:01.280Z,4
2017-02-15T06:12:24.073Z,8
2017-02-15T06:13:45.383Z,8
2017-02-15T06:15:07.884Z,8
2017-02-15T06:16:30.021Z,16
2017-02-15T06:17:52.412Z,16
2017-02-15T06:19:14.504Z,20
2017-02-15T06:20:37.008Z,28
2017-02-15T06:21:59.108Z,36
2017-02-15T06:23:20.681Z,44
2017-02-15T06:24:43.893Z,56
2017-02-15T06:26:05.652Z,64
2017-02-15T06:27:27.362Z,80
2017-02-15T06:28:50.161Z,96
2017-02-15T06:30:12.819Z,112
2017-02-15T06:31:35.492Z,132
2017-02-15T06:32:57.304Z,156
2017-02-15T06:34:19.882Z,180
2017-02-15T06:35:42.012Z,208
2017-02-15T06:37:04.154Z,236
2017-02-15T06:38:26.246Z,268
2017-02-15T06:39:48.639Z,308
2017-02-15T06:41:11.563Z,344
2017-02-15T06:42:33.284Z,388
2017-02-15T06:43:55.383Z,432
2017-02-15T06:45:18.302Z,480
2017-02-15T06:46:39.988Z,524
2017-02-15T06:48:02.185Z,576
2017-02-15T06:49:23.497Z,632
2017-02-15T06:50:46.828Z,688
2017-02-15T06:52:08.920Z,752
2017-02-15T06:53:30.630Z,812
2017-02-15T06:54:53.211Z,876
2017-02-15T06:56:15.579Z,940
2017-02-15T06:57:38.110Z,1008
2017-02-15T06:58:59.480Z,1076
2017-02-15T07:00:21.592Z,1148
2017-02-15T07:01:43.573Z,1220
2017-02-15T07:03:06.090Z,1296
2017-02-15T07:04:28.629Z,1372
2017-02-15T07:05:51.634Z,1448
2017-02-15T07:07:13.661Z,1520
2017-02-15T07:08:36.201Z,1604
2017-02-15T07:09:58.822Z,1680
2017-02-15T07:11:20.493Z,1760
2017-02-15T07:12:42.048Z,1844
2017-02-15T07:14:04.152Z,1916
2017-02-15T07:15:25.478Z,2000
2017-02-15T07:16:47.290Z,2080
2017-02-15T07:18:10.038Z,2156
2017-02-15T07:19:31.459Z,2236
2017-02-15T07:20:54.011Z,2308
2017-02-15T07:22:16.563Z,2388
2017-02-15T07:23:39.401Z,2472
2017-02-15T07:25:01.898Z,2556
2017-02-15T07:26:24.532Z,2636
2017-02-15T07:27:47.151Z,2720
2017-02-15T07:29:09.151Z,2800
2017-02-15T07:30:30.973Z,2872
2017-02-15T07:31:52.790Z,2928
2017-02-15T07:33:14.552Z,2980
2017-02-15T07:34:36.929Z,3052
2017-02-15T07:35:58.672Z,3120
2017-02-15T07:37:20.384Z,3180
2017-02-15T07:38:43.018Z,3248
2017-02-15T07:40:05.415Z,3308
2017-02-15T07:41:27.124Z,3372
2017-02-15T07:42:49.758Z,3440
2017-02-15T07:44:12.858Z,3504
2017-02-15T07:45:35.314Z,3556
2017-02-15T07:46:58.453Z,3620
2017-02-15T07:48:20.787Z,3676
2017-02-15T07:49:43.404Z,3716
2017-02-15T07:51:07.952Z,3768
2017-02-15T07:52:31.915Z,3820
2017-02-15T07:53:55.919Z,3864
2017-02-15T07:55:19.611Z,3912
2017-02-15T07:56:42.727Z,3956
2017-02-15T07:58:05.895Z,3992
2017-02-15T07:59:29.074Z,4036
2017-02-15T08:00:50.832Z,4096
2017-02-15T08:02:12.569Z,4128
2017-02-15T08:03:35.159Z,4164
2017-02-15T08:04:57.694Z,4208
2017-02-15T08:06:20.752Z,4252
2017-02-15T08:07:42.707Z,4276
2017-02-15T08:09:05.248Z,4312
2017-02-15T08:10:26.961Z,4344
2017-02-15T08:11:49.670Z,4384
2017-02-15T08:13:12.443Z,4408
2017-02-15T08:14:35.145Z,4424
2017-02-15T08:15:57.643Z,4440
2017-02-15T08:17:20.261Z,4452
2017-02-15T08:18:42.676Z,4472
2017-02-15T08:20:04.790Z,4492
2017-02-15T08:21:27.702Z,4520
2017-02-15T08:22:49.514Z,4552
2017-02-15T08:24:11.987Z,4584
2017-02-15T08:25:35.115Z,4624
2017-02-15T08:26:57.650Z,4640
2017-02-15T08:28:19.760Z,4684
2017-02-15T08:29:42.153Z,4712
2017-02-15T08:31:04.735Z,4704
2017-02-15T08:32:26.861Z,4704
2017-02-15T08:33:49.360Z,4728
2017-02-15T08:35:11.430Z,4740
2017-02-15T08:36:33.565Z,4772
2017-02-15T08:37:55.722Z,4788
2017-02-15T08:39:17.835Z,4792
2017-02-15T08:40:40.292Z,4808
2017-02-15T08:42:02.959Z,4836
2017-02-15T08:43:25.711Z,4848
2017-02-15T08:44:47.858Z,4840
2017-02-15T08:46:10.651Z,4860
2017-02-15T08:47:33.154Z,4888
2017-02-15T08:48:55.324Z,4904
2017-02-15T08:50:17.464Z,4896
2017-02-15T08:51:40.100Z,4896
2017-02-15T08:53:02.600Z,4904
2017-02-15T08:54:24.301Z,4908
2017-02-15T08:55:46.430Z,4920
2017-02-15T08:57:08.785Z,4936
2017-02-15T08:58:31.700Z,4932
2017-02-15T08:59:53.922Z,4932
2017-02-15T09:01:15.620Z,4944
2017-02-15T09:02:38.868Z,4940
2017-02-15T09:04:01.302Z,4944
2017-02-15T09:05:23.421Z,4952
2017-02-15T09:06:45.166Z,4964
2017-02-15T09:08:07.519Z,4968
2017-02-15T09:09:29.631Z,4968
2017-02-15T09:10:51.331Z,4968
2017-02-15T09:12:13.835Z,4996
2017-02-15T09:13:36.232Z,5000
2017-02-15T09:14:58.352Z,4996
2017-02-15T09:16:20.451Z,5000
2017-02-15T09:17:42.161Z,5016
2017-02-15T09:19:04.506Z,4992
2017-02-15T09:20:26.649Z,5012
2017-02-15T09:21:48.791Z,5008
2017-02-15T09:23:11.729Z,4992
2017-02-15T09:24:33.772Z,4992
2017-02-15T09:25:56.278Z,4992
2017-02-15T09:27:18.779Z,4992
2017-02-15T09:28:41.286Z,4980
2017-02-15T09:30:04.090Z,4980
2017-02-15T09:31:26.214Z,4968
2017-02-15T09:32:48.765Z,4980
2017-02-15T09:34:10.869Z,4972
2017-02-15T09:35:33.678Z,4976
2017-02-15T09:36:56.211Z,4976
2017-02-15T09:38:19.204Z,4968
2017-02-15T09:39:41.451Z,4984
2017-02-15T09:41:03.832Z,4992
2017-02-15T09:42:26.378Z,5000
2017-02-15T09:43:48.211Z,5008
2017-02-15T09:45:10.338Z,5020
2017-02-15T09:46:33.271Z,5028
2017-02-15T09:47:55.363Z,5020
2017-02-15T09:49:17.854Z,5028
2017-02-15T09:50:40.378Z,5024
2017-02-15T09:52:03.116Z,5024
2017-02-15T09:53:25.627Z,5032
2017-02-15T09:54:47.349Z,5016
2017-02-15T09:56:09.983Z,5004
2017-02-15T09:57:32.809Z,5024
2017-02-15T09:58:54.934Z,5040
2017-02-15T10:00:16.736Z,5052
2017-02-15T10:01:38.855Z,5056
2017-02-15T10:03:01.283Z,5056
2017-02-15T10:04:23.503Z,5044
2017-02-15T10:05:46.041Z,5052
2017-02-15T10:07:08.137Z,5068
2017-02-15T10:08:30.926Z,5068
2017-02-15T10:09:53.557Z,5060
2017-02-15T10:11:16.073Z,5044
2017-02-15T10:12:38.699Z,5056
2017-02-15T10:14:01.060Z,5052
2017-02-15T10:15:23.165Z,5048
2017-02-15T10:16:46.171Z,5040
2017-02-15T10:18:09.297Z,5044
2017-02-15T10:19:32.468Z,5052
2017-02-15T10:20:54.613Z,5044
2017-02-15T10:22:15.916Z,5040
2017-02-15T10:23:37.683Z,5024
2017-02-15T10:25:00.143Z,5024
2017-02-15T10:26:21.872Z,5024
2017-02-15T10:27:44.035Z,5020
2017-02-15T10:29:06.560Z,5004
2017-02-15T10:30:29.979Z,4996
2017-02-15T10:31:52.886Z,4996
2017-02-15T10:33:14.587Z,5000
2017-02-15T10:34:37.647Z,5000
2017-02-15T10:36:00.116Z,4996
2017-02-15T10:37:23.135Z,4988
2017-02-15T10:38:45.794Z,4992
2017-02-15T10:40:07.528Z,4996
2017-02-15T10:41:30.285Z,5008
2017-02-15T10:42:52.024Z,5012
2017-02-15T10:44:14.566Z,5024
2017-02-15T10:45:36.944Z,5028
2017-02-15T10:46:59.024Z,5008
2017-02-15T10:48:21.519Z,4996
2017-02-15T10:49:43.648Z,4988
2017-02-15T10:51:05.788Z,4984
2017-02-15T10:52:27.359Z,4980
2017-02-15T10:53:49.467Z,4980
2017-02-15T10:55:10.770Z,4984
2017-02-15T10:56:33.424Z,4984
2017-02-15T10:57:56.699Z,4988
2017-02-15T10:59:18.830Z,4996
2017-02-15T11:00:41.380Z,4980
2017-02-15T11:02:03.499Z,4968
2017-02-15T11:03:26.569Z,4960
2017-02-15T11:04:48.278Z,4948
2017-02-15T11:06:10.931Z,4932
2017-02-15T11:07:33.455Z,4936
2017-02-15T11:08:56.235Z,4928
2017-02-15T11:10:17.976Z,4868
2017-02-15T11:11:40.153Z,4908
2017-02-15T11:13:01.888Z,4920
2017-02-15T11:14:24.847Z,4932
2017-02-15T11:15:46.969Z,4924
2017-02-15T11:17:08.679Z,4932
2017-02-15T11:18:31.212Z,4936
2017-02-15T11:19:53.717Z,4948
2017-02-15T11:21:16.301Z,4968
2017-02-15T11:22:39.107Z,4968
2017-02-15T11:24:33.082Z,4940
2017-02-15T11:25:55.088Z,4940
2017-02-15T11:27:17.620Z,4944
2017-02-15T11:28:39.747Z,4940
2017-02-15T11:30:02.241Z,4940
2017-02-15T11:31:24.758Z,4940
2017-02-15T11:32:46.887Z,4924
2017-02-15T11:34:09.414Z,4900
2017-02-15T11:35:31.883Z,4884
2017-02-15T11:36:53.589Z,4884
2017-02-15T11:38:16.113Z,4896
2017-02-15T11:39:38.649Z,4896
2017-02-15T11:41:01.420Z,4904
2017-02-15T11:42:24.029Z,4908
2017-02-15T11:43:46.151Z,4896
2017-02-15T11:45:08.709Z,4884
2017-02-15T11:46:30.828Z,4888
2017-02-15T11:47:53.734Z,4872
2017-02-15T11:49:16.267Z,4876
2017-02-15T11:50:39.191Z,4876
2017-02-15T11:52:00.781Z,4880
2017-02-15T11:53:23.283Z,4860
2017-02-15T11:54:46.262Z,4860
2017-02-15T11:56:08.810Z,4860
2017-02-15T11:57:31.646Z,4860
2017-02-15T11:58:53.788Z,4844
2017-02-15T12:00:16.757Z,4836
2017-02-15T12:01:38.920Z,4832
2017-02-15T12:03:01.389Z,4824
2017-02-15T12:04:23.112Z,4824
2017-02-15T12:05:45.302Z,4816
2017-02-15T12:07:07.864Z,4816
2017-02-15T12:08:31.049Z,4808
2017-02-15T12:09:52.777Z,4808
2017-02-15T12:11:14.904Z,4796
2017-02-15T12:12:37.229Z,4788
2017-02-15T12:14:00.111Z,4784
2017-02-15T12:15:22.234Z,4776
2017-02-15T12:16:43.989Z,4776
2017-02-15T12:18:05.018Z,4772
2017-02-15T12:19:27.361Z,4772
2017-02-15T12:20:49.488Z,4764
2017-02-15T12:22:10.881Z,4776
2017-02-15T12:23:33.510Z,4760
2017-02-15T12:24:56.681Z,4744
2017-02-15T12:26:18.815Z,4740
2017-02-15T12:27:40.959Z,4736
2017-02-15T12:29:03.479Z,4740
2017-02-15T12:30:25.447Z,4752
2017-02-15T12:31:47.968Z,4744
2017-02-15T12:33:10.481Z,4736
2017-02-15T12:34:32.320Z,4728
2017-02-15T12:35:54.633Z,4732
2017-02-15T12:37:16.735Z,4732
2017-02-15T12:38:38.885Z,4720
2017-02-15T12:40:00.999Z,4700
2017-02-15T12:41:23.819Z,4692
2017-02-15T12:42:45.528Z,4684
2017-02-15T12:44:09.008Z,4668
2017-02-15T12:45:30.336Z,4664
2017-02-15T12:46:53.287Z,4664
2017-02-15T12:48:15.821Z,4648
2017-02-15T12:49:38.428Z,4632
2017-02-15T12:51:00.966Z,4616
2017-02-15T12:52:23.852Z,4616
2017-02-15T12:53:45.578Z,4616
2017-02-15T12:55:08.527Z,4608
2017-02-15T12:56:31.060Z,4608
2017-02-15T12:57:53.976Z,4596
2017-02-15T12:59:16.539Z,4592
2017-02-15T13:00:38.250Z,4584
2017-02-15T13:02:00.500Z,4584
2017-02-15T13:03:22.970Z,4580
2017-02-15T13:04:45.191Z,4564
2017-02-15T13:06:07.748Z,4564
2017-02-15T13:07:30.152Z,4580
2017-02-15T13:08:52.572Z,4576
2017-02-15T13:10:14.752Z,4568
2017-02-15T13:11:36.049Z,4564
2017-02-15T13:12:58.607Z,4576
2017-02-15T13:14:21.043Z,4576
2017-02-15T13:15:43.586Z,4560
2017-02-15T13:17:05.760Z,4544
2017-02-15T13:18:28.723Z,4540
2017-02-15T13:19:51.089Z,4540
2017-02-15T13:21:12.821Z,4548
2017-02-15T13:22:35.749Z,4532
2017-02-15T13:23:58.131Z,4524
2017-02-15T13:25:20.998Z,4508
2017-02-15T13:26:44.000Z,4508
2017-02-15T13:28:06.534Z,4512
2017-02-15T13:29:28.752Z,4508
2017-02-15T13:30:51.564Z,4504
2017-02-15T13:32:13.777Z,4484
2017-02-15T13:33:35.899Z,4468
2017-02-15T13:34:58.881Z,4460
2017-02-15T13:36:21.261Z,4452
2017-02-15T13:37:43.808Z,4440
2017-02-15T13:39:06.392Z,4436
2017-02-15T13:40:28.626Z,4428
2017-02-15T13:41:51.515Z,4420
2017-02-15T13:43:14.055Z,4404
2017-02-15T13:44:36.661Z,4388
2017-02-15T13:45:59.575Z,4364
2017-02-15T13:47:22.451Z,4360
2017-02-15T13:48:45.460Z,4356
2017-02-15T13:50:07.599Z,4348
2017-02-15T13:51:29.719Z,4340
2017-02-15T13:52:52.571Z,4328
2017-02-15T13:54:13.910Z,4328
2017-02-15T13:55:36.928Z,4316
2017-02-15T13:56:59.579Z,4300
2017-02-15T13:58:22.522Z,4276
2017-02-15T13:59:45.210Z,4252
2017-02-15T14:01:07.392Z,4244
2017-02-15T14:02:29.214Z,4232
2017-02-15T14:03:51.276Z,4224
2017-02-15T14:05:12.589Z,4216
2017-02-15T14:06:35.500Z,4208
2017-02-15T14:07:58.025Z,4204
2017-02-15T14:09:20.928Z,4204
2017-02-15T14:10:43.509Z,4188
2017-02-15T14:12:06.084Z,4164
2017-02-15T14:13:27.849Z,4140
2017-02-15T14:14:50.327Z,4128
2017-02-15T14:16:12.490Z,4116
2017-02-15T14:17:35.104Z,4100
2017-02-15T14:18:56.818Z,4092
2017-02-15T14:20:19.694Z,4072
2017-02-15T14:21:41.534Z,4052
2017-02-15T14:23:04.496Z,4044
2017-02-15T14:24:26.484Z,4028
2017-02-15T14:25:49.349Z,4016
2017-02-15T14:27:11.055Z,3996
2017-02-15T14:28:33.599Z,3976
2017-02-15T14:29:55.736Z,3952
2017-02-15T14:31:18.581Z,3932
2017-02-15T14:32:40.290Z,3920
2017-02-15T14:34:02.012Z,3904
2017-02-15T14:35:24.670Z,3888
2017-02-15T14:36:46.682Z,3868
2017-02-15T14:38:08.960Z,3856
2017-02-15T14:39:30.689Z,3836
2017-02-15T14:40:52.885Z,3820
2017-02-15T14:42:16.039Z,3796
2017-02-15T14:43:37.769Z,3772
2017-02-15T14:44:59.936Z,3752
2017-02-15T14:46:21.681Z,3728
2017-02-15T14:47:44.130Z,3708
2017-02-15T14:49:06.352Z,3688
2017-02-15T14:50:28.547Z,3668
2017-02-15T14:51:51.066Z,3648
2017-02-15T14:53:13.579Z,3620
2017-02-15T14:54:35.709Z,3600
2017-02-15T14:55:57.869Z,3580
2017-02-15T14:57:20.437Z,3560
2017-02-15T14:58:43.672Z,3536
2017-02-15T15:00:06.609Z,3508
2017-02-15T15:01:29.148Z,3484
2017-02-15T15:02:51.649Z,3460
2017-02-15T15:04:13.929Z,3432
2017-02-15T15:05:36.052Z,3404
2017-02-15T15:06:59.102Z,3376
2017-02-15T15:08:21.282Z,3344
2017-02-15T15:09:44.071Z,3320
2017-02-15T15:11:06.582Z,3288
2017-02-15T15:12:29.147Z,3264
2017-02-15T15:13:51.391Z,3236
2017-02-15T15:15:14.185Z,3208
2017-02-15T15:16:37.108Z,3176
2017-02-15T15:17:59.629Z,3148
2017-02-15T15:19:21.737Z,3112
2017-02-15T15:20:45.042Z,3084
2017-02-15T15:22:07.832Z,3052
2017-02-15T15:23:30.359Z,3016
2017-02-15T15:24:52.901Z,2980
2017-02-15T15:26:15.349Z,2948
2017-02-15T15:27:37.882Z,2912
2017-02-15T15:29:00.872Z,2876
2017-02-15T15:30:23.417Z,2836
2017-02-15T15:31:46.402Z,2800
2017-02-15T15:33:08.995Z,2760
2017-02-15T15:34:31.535Z,2716
2017-02-15T15:35:54.283Z,2676
2017-02-15T15:37:17.161Z,2632
2017-02-15T15:38:39.797Z,2592
2017-02-15T15:40:02.503Z,2544
2017-02-15T15:41:25.185Z,2496
2017-02-15T15:42:48.030Z,2456
2017-02-15T15:44:10.194Z,2412
2017-02-15T15:45:32.733Z,2360
2017-02-15T15:46:55.274Z,2308
2017-02-15T15:48:18.149Z,2260
2017-02-15T15:49:39.974Z,2212
2017-02-15T15:51:02.118Z,2156
2017-02-15T15:52:24.268Z,2108
2017-02-15T15:53:47.090Z,2052
2017-02-15T15:55:10.032Z,2000
2017-02-15T15:56:31.845Z,1940
2017-02-15T15:57:53.975Z,1888
2017-02-15T15:59:16.770Z,1828
2017-02-15T16:00:39.870Z,1768
2017-02-15T16:02:02.418Z,1708
2017-02-15T16:03:24.950Z,1644
2017-02-15T16:04:47.799Z,1584
2017-02-15T16:06:09.936Z,1520
2017-02-15T16:07:32.890Z,1460
2017-02-15T16:08:55.968Z,1396
2017-02-15T16:10:18.833Z,1332
2017-02-15T16:11:40.943Z,1264
2017-02-15T16:13:03.145Z,1196
2017-02-15T16:14:26.066Z,1132
2017-02-15T16:15:48.849Z,1068
2017-02-15T16:17:11.447Z,1004
2017-02-15T16:18:33.967Z,940
2017-02-15T16:19:56.560Z,880
2017-02-15T16:21:19.464Z,816
2017-02-15T16:22:41.594Z,756
2017-02-15T16:24:03.739Z,696
2017-02-15T16:25:25.717Z,640
2017-02-15T16:26:48.191Z,584
2017-02-15T16:28:11.108Z,532
2017-02-15T16:29:34.042Z,484
2017-02-15T16:30:56.260Z,436
2017-02-15T16:32:19.424Z,392
2017-02-15T16:33:42.008Z,348
2017-02-15T16:35:04.941Z,312
2017-02-15T16:36:27.485Z,276
2017-02-15T16:37:49.872Z,240
2017-02-15T16:39:12.831Z,208
2017-02-15T16:40:35.610Z,180
2017-02-15T16:41:58.142Z,152
2017-02-15T16:43:21.092Z,128
2017-02-15T16:44:44.144Z,104
2017-02-15T16:46:06.675Z,92
2017-02-15T16:47:29.298Z,72
2017-02-15T16:48:51.728Z,60
2017-02-15T16:50:14.298Z,48
2017-02-15T16:51:37.355Z,36
2017-02-15T16:52:59.499Z,32
2017-02-15T16:54:22.287Z,24
2017-02-15T16:55:44.863Z,16
2017-02-15T16:57:07.798Z,16
2017-02-15T16:58:29.539Z,12
2017-02-15T16:59:52.735Z,8
2017-02-15T17:01:14.561Z,8
2017-02-15T17:02:37.149Z,8
2017-02-15T17:03:59.687Z,4
2017-02-15T17:05:21.741Z,4
2017-02-15T17:06:44.551Z,0
2017-02-15T17:08:06.747Z,4
2017-02-15T17:09:29.292Z,0
2017-02-15T17:10:52.122Z,0
2017-02-15T17:12:14.304Z,0
2017-02-15T17:13:36.899Z,0
2017-02-15T17:14:58.651Z,0
2017-02-15T17:16:21.947Z,0
2017-02-15T17:17:44.463Z,0
2017-02-15T17:19:07.009Z,0
2017-02-15T17:20:29.765Z,0
2017-02-15T17:21:52.609Z,0
2017-02-15T17:23:15.140Z,0
2017-02-15T17:24:38.091Z,0
2017-02-15T17:26:01.311Z,0
2017-02-15T17:27:24.649Z,0
2017-02-15T17:28:47.602Z,0
2017-02-15T17:30:10.265Z,0
2017-02-15T17:31:32.836Z,0
2017-02-15T17:32:55.264Z,0
2017-02-15T17:34:17.864Z,0
2017-02-15T17:35:40.003Z,0
2017-02-15T17:37:02.979Z,0
2017-02-15T17:38:26.211Z,0
2017-02-15T17:39:48.812Z,0
2017-02-15T17:41:11.792Z,0
2017-02-15T17:42:34.391Z,0
2017-02-15T17:43:56.366Z,0
2017-02-15T17:45:19.300Z,0
2017-02-15T17:46:42.242Z,0
2017-02-15T17:48:04.828Z,0
2017-02-15T17:49:27.227Z,0
2017-02-15T17:50:50.180Z,0
2017-02-15T17:52:13.254Z,0
2017-02-15T17:53:35.398Z,0
2017-02-15T17:54:58.209Z,0
2017-02-15T17:56:20.333Z,0
2017-02-15T17:57:43.379Z,0
2017-02-15T17:59:05.963Z,0
2017-02-15T18:00:29.179Z,0
2017-02-15T18:01:51.741Z,0
2017-02-15T18:03:13.593Z,0
2017-02-15T18:04:36.255Z,0
2017-02-15T18:05:59.289Z,0
2017-02-15T18:07:21.439Z,0
2017-02-15T18:08:44.556Z,0
2017-02-15T18:10:06.858Z,0
2017-02-15T18:11:28.961Z,0
2017-02-15T18:12:51.527Z,0
2017-02-15T18:14:14.678Z,0
2017-02-15T18:15:37.377Z,0
2017-02-15T18:17:00.590Z,0
2017-02-15T18:18:23.207Z,0
2017-02-15T18:19:46.205Z,0
2017-02-15T18:21:08.837Z,0
2017-02-15T18:22:31.730Z,0
2017-02-15T18:23:54.815Z,0
2017-02-15T18:25:17.031Z,0
2017-02-15T18:26:40.661Z,0
